createdAt,value
2022-10-24T00:00:32.207Z,95978.97
2022-10-24T00:02:59.640Z,95980.94
2022-10-24T00:05:26.529Z,95968.50
2022-10-24T00:07:53.005Z,95979.69
2022-10-24T00:10:19.914Z,95983.59
2022-10-24T00:12:47.093Z,95984.63
2022-10-24T00:15:14.264Z,96005.19
2022-10-24T00:17:40.674Z,96000.91
2022-10-24T00:20:08.343Z,96004.38
2022-10-24T00:22:34.792Z,95998.50
2022-10-24T00:25:01.206Z,96014.59
2022-10-24T00:27:27.568Z,96031.13
2022-10-24T00:29:53.942Z,96019.41
2022-10-24T00:32:20.480Z,96046.16
2022-10-24T00:34:46.833Z,96076.31
2022-10-24T00:37:13.329Z,96084.59
2022-10-24T00:39:39.729Z,96119.28
2022-10-24T00:42:06.427Z,96154.56
2022-10-24T00:44:37.648Z,96164.16
2022-10-24T00:47:10.625Z,96188.22
2022-10-24T00:49:43.931Z,96221.28
2022-10-24T00:52:12.256Z,96244.78
2022-10-24T00:54:39.810Z,96267.56
2022-10-24T00:57:13.659Z,96286.78
2022-10-24T00:59:42.994Z,96315.47
2022-10-24T01:02:10.063Z,96322.09
2022-10-24T01:04:36.567Z,96355.19
2022-10-24T01:07:37.321Z,96376.13
2022-10-24T01:10:19.083Z,96379.63
2022-10-24T01:13:02.480Z,96409.34
2022-10-24T01:16:05.641Z,96411.31
2022-10-24T01:18:39.389Z,96438.06
2022-10-24T01:21:24.755Z,96441.50
2022-10-24T01:24:04.793Z,96424.88
2022-10-24T01:26:53.013Z,96439.00
2022-10-24T01:30:00.703Z,96451.28
2022-10-24T01:32:39.348Z,96463.53
2022-10-24T01:35:11.730Z,96472.25
2022-10-24T01:37:45.848Z,96481.72
2022-10-24T01:40:38.292Z,96461.13
2022-10-24T01:43:10.861Z,96495.59
2022-10-24T01:45:41.590Z,96484.94
2022-10-24T01:48:11.965Z,96502.34
2022-10-24T01:50:39.277Z,96499.09
2022-10-24T01:53:07.456Z,96498.66
2022-10-24T01:55:34.094Z,96521.53
2022-10-24T01:58:00.535Z,96516.84
2022-10-24T02:00:27.095Z,96513.41
2022-10-24T02:03:17.257Z,96527.09
2022-10-24T02:05:49.339Z,96529.38
2022-10-24T02:08:21.637Z,96549.53
2022-10-24T02:10:52.646Z,96553.72
2022-10-24T02:13:29.575Z,96578.19
2022-10-24T02:15:59.969Z,96571.53
2022-10-24T02:18:28.695Z,96577.97
2022-10-24T02:21:28.403Z,96612.75
2022-10-24T02:24:06.795Z,96646.75
2022-10-24T02:26:54.851Z,96603.38
2022-10-24T02:29:52.586Z,96537.44
2022-10-24T02:32:27.705Z,96534.06
2022-10-24T02:34:55.496Z,96523.44
2022-10-24T02:37:23.739Z,96545.38
2022-10-24T02:39:52.923Z,96574.59
2022-10-24T02:42:21.249Z,96579.53
2022-10-24T02:44:49.044Z,96543.88
2022-10-24T02:47:18.120Z,96559.72
2022-10-24T02:49:44.519Z,96568.88
2022-10-24T02:52:11.566Z,96544.34
2022-10-24T02:54:37.955Z,96580.22
2022-10-24T02:57:04.603Z,96593.03
2022-10-24T02:59:31.086Z,96602.34
2022-10-24T03:01:58.042Z,96610.06
2022-10-24T03:04:24.582Z,96626.13
2022-10-24T03:06:51.017Z,96647.19
2022-10-24T03:09:17.412Z,96657.72
2022-10-24T03:11:43.943Z,96678.66
2022-10-24T03:14:10.362Z,96674.06
2022-10-24T03:16:36.732Z,96686.06
2022-10-24T03:19:03.213Z,96687.56
2022-10-24T03:21:29.640Z,96691.91
2022-10-24T03:23:56.103Z,96720.41
2022-10-24T03:26:22.521Z,96697.94
2022-10-24T03:28:48.903Z,96706.34
2022-10-24T03:31:15.358Z,96713.31
2022-10-24T03:33:41.866Z,96720.28
2022-10-24T03:36:08.597Z,96689.25
2022-10-24T03:38:35.003Z,96714.53
2022-10-24T03:41:01.426Z,96728.84
2022-10-24T03:43:27.872Z,96734.53
2022-10-24T03:45:54.299Z,96721.81
2022-10-24T03:48:20.757Z,96720.47
2022-10-24T03:50:47.155Z,96717.19
2022-10-24T03:53:13.595Z,96680.19
2022-10-24T03:55:40.090Z,96644.28
2022-10-24T03:58:06.681Z,96680.22
2022-10-24T04:00:38.968Z,96697.78
2022-10-24T04:03:05.969Z,96714.72
2022-10-24T04:05:33.511Z,96722.34
2022-10-24T04:07:59.907Z,96704.97
2022-10-24T04:10:26.326Z,96726.97
2022-10-24T04:12:52.878Z,96737.50
2022-10-24T04:15:19.396Z,96745.28
2022-10-24T04:17:46.356Z,96746.38
2022-10-24T04:20:13.230Z,96763.69
2022-10-24T04:22:39.611Z,96768.50
2022-10-24T04:25:06.261Z,96791.06
2022-10-24T04:27:32.799Z,96781.59
2022-10-24T04:29:59.177Z,96797.78
2022-10-24T04:32:25.616Z,96810.31
2022-10-24T04:34:51.991Z,96804.38
2022-10-24T04:37:18.368Z,96818.38
2022-10-24T04:39:44.864Z,96847.97
2022-10-24T04:42:11.244Z,96846.06
2022-10-24T04:44:37.661Z,96852.09
2022-10-24T04:47:04.152Z,96842.97
2022-10-24T04:49:30.609Z,96847.59
2022-10-24T04:51:57.021Z,96857.53
2022-10-24T04:54:23.405Z,96862.94
2022-10-24T04:56:49.808Z,96863.47
2022-10-24T04:59:16.281Z,96865.56
2022-10-24T05:01:42.795Z,96866.63
2022-10-24T05:04:09.554Z,96873.44
2022-10-24T05:06:36.968Z,96896.28
2022-10-24T05:09:04.542Z,96895.22
2022-10-24T05:11:31.870Z,96904.59
2022-10-24T05:13:58.361Z,96919.97
2022-10-24T05:16:24.770Z,96916.88
2022-10-24T05:18:51.171Z,96917.00
2022-10-24T05:21:17.652Z,96914.84
2022-10-24T05:23:44.018Z,96901.75
2022-10-24T05:26:10.472Z,96915.75
2022-10-24T05:28:36.856Z,96901.75
2022-10-24T05:31:03.349Z,96919.31
2022-10-24T05:33:29.799Z,96893.88
2022-10-24T05:35:56.292Z,96893.16
2022-10-24T05:38:23.309Z,96898.78
2022-10-24T05:40:51.482Z,96891.66
2022-10-24T05:43:18.766Z,96913.84
2022-10-24T05:45:47.736Z,96921.28
2022-10-24T05:48:14.217Z,96975.41
2022-10-24T05:50:40.609Z,96995.06
2022-10-24T05:53:08.682Z,96999.09
2022-10-24T05:55:36.427Z,97006.59
2022-10-24T05:58:02.973Z,96993.66
2022-10-24T06:00:29.441Z,96996.09
2022-10-24T06:02:55.892Z,96977.22
2022-10-24T06:05:22.321Z,96980.94
2022-10-24T06:07:49.085Z,96967.47
2022-10-24T06:10:15.623Z,96965.97
2022-10-24T06:12:42.199Z,96967.03
2022-10-24T06:15:10.239Z,96962.28
2022-10-24T06:17:36.886Z,96947.03
2022-10-24T06:20:04.550Z,96944.97
2022-10-24T06:22:31.279Z,96933.53
2022-10-24T06:24:57.708Z,96943.69
2022-10-24T06:27:24.305Z,96930.28
2022-10-24T06:29:50.740Z,96953.53
2022-10-24T06:32:17.260Z,96945.75
2022-10-24T06:34:43.687Z,96960.72
2022-10-24T06:37:10.085Z,96921.38
2022-10-24T06:39:36.495Z,96950.69
2022-10-24T06:42:02.972Z,96990.53
2022-10-24T06:44:29.345Z,96969.72
2022-10-24T06:46:55.865Z,96996.41
2022-10-24T06:49:22.322Z,96994.13
2022-10-24T06:51:48.782Z,97017.38
2022-10-24T06:54:16.135Z,97021.75
2022-10-24T06:56:42.870Z,97032.03
2022-10-24T06:59:11.521Z,97037.34
2022-10-24T07:01:38.032Z,97039.38
2022-10-24T07:04:05.354Z,97024.75
2022-10-24T07:06:32.613Z,97035.53
2022-10-24T07:09:01.114Z,97051.44
2022-10-24T07:11:28.355Z,97046.66
2022-10-24T07:13:57.953Z,97044.56
2022-10-24T07:16:27.454Z,97030.13
2022-10-24T07:18:53.868Z,97049.31
2022-10-24T07:21:26.913Z,97057.03
2022-10-24T07:23:54.657Z,97053.78
2022-10-24T07:26:22.271Z,97046.38
2022-10-24T07:28:53.298Z,97049.25
2022-10-24T07:31:21.726Z,97063.69
2022-10-24T07:33:48.183Z,97054.97
2022-10-24T07:36:20.319Z,97054.09
2022-10-24T07:38:51.654Z,97034.22
2022-10-24T07:41:18.711Z,97038.53
2022-10-24T07:43:46.198Z,97032.97
2022-10-24T07:46:15.098Z,97008.16
2022-10-24T07:48:42.506Z,96993.00
2022-10-24T07:51:11.437Z,96978.63
2022-10-24T07:53:38.873Z,96973.75
2022-10-24T07:56:09.377Z,96968.91
2022-10-24T07:58:36.632Z,96953.38
2022-10-24T08:01:10.104Z,96968.38
2022-10-24T08:03:36.632Z,96956.38
2022-10-24T08:06:13.173Z,96978.97
2022-10-24T08:08:40.541Z,96957.75
2022-10-24T08:11:13.330Z,96969.88
2022-10-24T08:13:40.258Z,96959.91
2022-10-24T08:16:08.544Z,96960.34
2022-10-24T08:18:39.519Z,96950.25
2022-10-24T08:21:09.098Z,96947.84
2022-10-24T08:23:37.394Z,96940.09
2022-10-24T08:26:07.833Z,96948.72
2022-10-24T08:28:34.591Z,96952.41
2022-10-24T08:31:06.946Z,96950.53
2022-10-24T08:33:33.510Z,96955.44
2022-10-24T08:36:19.894Z,96957.44
2022-10-24T08:38:46.311Z,96971.59
2022-10-24T08:41:22.779Z,96964.19
2022-10-24T08:43:49.246Z,96961.06
2022-10-24T08:46:26.579Z,96936.09
2022-10-24T08:49:03.349Z,96942.19
2022-10-24T08:51:36.355Z,96958.13
2022-10-24T08:54:04.771Z,96977.03
2022-10-24T08:56:33.914Z,96975.28
2022-10-24T08:59:02.452Z,96980.53
2022-10-24T09:01:40.164Z,96991.13
2022-10-24T09:04:09.913Z,96979.59
2022-10-24T09:06:36.953Z,97007.84
2022-10-24T09:09:15.416Z,97011.91
2022-10-24T09:11:59.933Z,97009.13
2022-10-24T09:14:29.320Z,97011.09
2022-10-24T09:17:10.838Z,97018.53
2022-10-24T09:19:38.066Z,97023.75
2022-10-24T09:22:07.827Z,97045.34
2022-10-24T09:24:51.062Z,97057.84
2022-10-24T09:27:30.095Z,97068.59
2022-10-24T09:29:58.163Z,97076.28
2022-10-24T09:32:27.458Z,97115.44
2022-10-24T09:34:55.022Z,97129.63
2022-10-24T09:37:41.316Z,97167.63
2022-10-24T09:40:17.810Z,97169.69
2022-10-24T09:42:49.296Z,97175.88
2022-10-24T09:45:29.684Z,97190.63
2022-10-24T09:48:02.305Z,97198.56
2022-10-24T09:50:31.706Z,97217.34
2022-10-24T09:52:59.710Z,97217.44
2022-10-24T09:55:31.873Z,97237.84
2022-10-24T09:58:04.037Z,97246.72
2022-10-24T10:00:33.902Z,97253.13
2022-10-24T10:03:24.027Z,97289.13
2022-10-24T10:05:54.378Z,97290.19
2022-10-24T10:08:24.513Z,97348.44
2022-10-24T10:10:58.310Z,97360.56
2022-10-24T10:13:27.193Z,97375.91
2022-10-24T10:15:58.201Z,97382.97
2022-10-24T10:18:39.956Z,97410.28
2022-10-24T10:21:18.948Z,97403.31
2022-10-24T10:23:50.289Z,97423.03
2022-10-24T10:26:21.094Z,97405.81
2022-10-24T10:29:03.258Z,97395.59
2022-10-24T10:31:54.076Z,97414.44
2022-10-24T10:34:35.738Z,97402.25
2022-10-24T10:37:04.829Z,97396.22
2022-10-24T10:39:52.476Z,97406.38
2022-10-24T10:42:41.630Z,97438.97
2022-10-24T10:45:14.177Z,97486.59
2022-10-24T10:47:40.627Z,97542.38
2022-10-24T10:50:22.222Z,97567.72
2022-10-24T10:52:49.219Z,97539.81
2022-10-24T10:55:24.590Z,97522.50
2022-10-24T10:58:14.052Z,97509.16
2022-10-24T11:01:02.455Z,97521.78
2022-10-24T11:03:34.385Z,97479.66
2022-10-24T11:06:26.404Z,97479.59
2022-10-24T11:09:11.619Z,97487.78
2022-10-24T11:11:42.224Z,97418.25
2022-10-24T11:14:44.276Z,97439.34
2022-10-24T11:17:16.910Z,97446.81
2022-10-24T11:19:56.184Z,97435.31
2022-10-24T11:22:32.325Z,97415.00
2022-10-24T11:25:07.178Z,97375.06
2022-10-24T11:27:48.780Z,97369.31
2022-10-24T11:30:17.848Z,97381.31
2022-10-24T11:32:58.074Z,97411.41
2022-10-24T11:35:33.089Z,97408.84
2022-10-24T11:38:12.827Z,97348.44
2022-10-24T11:40:42.049Z,97378.41
2022-10-24T11:43:27.258Z,97376.34
2022-10-24T11:46:06.347Z,97402.97
2022-10-24T11:48:40.632Z,97351.03
2022-10-24T11:51:07.014Z,97347.16
2022-10-24T11:53:33.446Z,97328.44
2022-10-24T11:56:06.918Z,97303.78
2022-10-24T11:58:36.324Z,97320.09
2022-10-24T12:01:20.254Z,97322.97
2022-10-24T12:04:11.721Z,97288.06
2022-10-24T12:06:56.434Z,97299.66
2022-10-24T12:09:43.583Z,97285.69
2022-10-24T12:12:09.972Z,97299.78
2022-10-24T12:14:36.312Z,97296.72
2022-10-24T12:17:36.064Z,97308.53
2022-10-24T12:20:05.526Z,97374.16
2022-10-24T12:22:39.921Z,97347.25
2022-10-24T12:25:19.107Z,97352.78
2022-10-24T12:27:53.874Z,97396.16
2022-10-24T12:30:21.916Z,97409.94
2022-10-24T12:32:51.801Z,97433.00
2022-10-24T12:35:31.346Z,97413.88
2022-10-24T12:37:58.979Z,97384.38
2022-10-24T12:40:55.410Z,97363.31
2022-10-24T12:43:47.467Z,97374.38
2022-10-24T12:46:22.620Z,97400.31
2022-10-24T12:48:58.932Z,97407.69
2022-10-24T12:51:36.363Z,97416.91
2022-10-24T12:54:17.536Z,97514.94
2022-10-24T12:56:50.217Z,97588.31
2022-10-24T12:59:26.131Z,97604.69
2022-10-24T13:02:15.405Z,97658.53
2022-10-24T13:05:18.796Z,97618.91
2022-10-24T13:08:14.080Z,97595.88
2022-10-24T13:10:53.237Z,97545.13
2022-10-24T13:13:37.904Z,97559.81
2022-10-24T13:16:33.104Z,97579.78
2022-10-24T13:19:10.297Z,97544.06
2022-10-24T13:21:52.495Z,97538.13
2022-10-24T13:24:21.732Z,97529.47
2022-10-24T13:26:55.776Z,97520.69
2022-10-24T13:29:28.364Z,97504.25
2022-10-24T13:32:18.592Z,97484.09
2022-10-24T13:34:49.972Z,97442.59
2022-10-24T13:37:24.815Z,97489.31
2022-10-24T13:40:12.901Z,97470.84
2022-10-24T13:42:50.990Z,97485.34
2022-10-24T13:45:27.491Z,97463.38
2022-10-24T13:48:05.886Z,97479.50
2022-10-24T13:50:35.472Z,97523.41
2022-10-24T13:53:12.070Z,97527.88
2022-10-24T13:55:47.936Z,97513.41
2022-10-24T13:58:26.445Z,97487.59
2022-10-24T14:01:03.134Z,97491.00
2022-10-24T14:03:31.847Z,97475.84
2022-10-24T14:06:01.620Z,97471.38
2022-10-24T14:08:34.497Z,97461.13
2022-10-24T14:11:04.813Z,97462.56
2022-10-24T14:13:34.114Z,97476.75
2022-10-24T14:16:03.923Z,97466.88
2022-10-24T14:18:30.691Z,97479.09
2022-10-24T14:21:02.971Z,97454.50
2022-10-24T14:23:39.792Z,97468.75
2022-10-24T14:26:19.485Z,97486.56
2022-10-24T14:28:59.605Z,97472.19
2022-10-24T14:31:31.010Z,97441.25
2022-10-24T14:33:58.445Z,97450.75
2022-10-24T14:36:30.351Z,97436.34
2022-10-24T14:38:59.176Z,97408.66
2022-10-24T14:41:32.997Z,97454.94
2022-10-24T14:44:00.122Z,97424.28
2022-10-24T14:46:37.359Z,97457.50
2022-10-24T14:49:22.101Z,97458.66
2022-10-24T14:51:54.333Z,97442.31
2022-10-24T14:54:27.485Z,97457.34
2022-10-24T14:56:54.477Z,97461.06
2022-10-24T14:59:35.255Z,97486.69
2022-10-24T15:02:27.058Z,97490.88
2022-10-24T15:05:13.867Z,97511.50
2022-10-24T15:07:52.295Z,97516.69
2022-10-24T15:10:36.064Z,97502.13
2022-10-24T15:13:21.578Z,97521.09
2022-10-24T15:15:56.803Z,97529.94
2022-10-24T15:18:29.514Z,97549.28
2022-10-24T15:21:03.810Z,97548.75
2022-10-24T15:23:36.725Z,97574.41
2022-10-24T15:26:09.185Z,97577.97
2022-10-24T15:28:47.883Z,97582.94
2022-10-24T15:31:17.210Z,97610.84
2022-10-24T15:33:43.893Z,97618.63
2022-10-24T15:36:25.414Z,97596.63
2022-10-24T15:39:14.955Z,97600.28
2022-10-24T15:41:41.790Z,97614.69
2022-10-24T15:44:26.590Z,97594.16
2022-10-24T15:46:53.512Z,97592.09
2022-10-24T15:49:20.091Z,97577.34
2022-10-24T15:51:50.263Z,97566.34
2022-10-24T15:54:19.672Z,97563.09
2022-10-24T15:56:46.207Z,97558.16
2022-10-24T15:59:12.624Z,97543.88
2022-10-24T16:01:47.364Z,97570.13
2022-10-24T16:04:14.872Z,97596.88
2022-10-24T16:06:41.283Z,97582.22
2022-10-24T16:09:14.332Z,97591.66
2022-10-24T16:11:40.776Z,97622.06
2022-10-24T16:14:07.247Z,97619.59
2022-10-24T16:16:33.657Z,97619.88
2022-10-24T16:19:00.076Z,97654.19
2022-10-24T16:21:26.472Z,97687.44
2022-10-24T16:23:53.842Z,97673.56
2022-10-24T16:26:20.275Z,97653.06
2022-10-24T16:28:46.832Z,97668.28
2022-10-24T16:31:18.576Z,97668.28
2022-10-24T16:33:46.572Z,97680.66
2022-10-24T16:36:13.297Z,97702.19
2022-10-24T16:38:40.834Z,97730.56
2022-10-24T16:41:07.601Z,97726.28
2022-10-24T16:43:37.569Z,97753.81
2022-10-24T16:46:07.834Z,97746.84
2022-10-24T16:48:34.215Z,97736.22
2022-10-24T16:51:00.573Z,97733.56
2022-10-24T16:53:26.956Z,97760.47
2022-10-24T16:55:54.856Z,97760.88
2022-10-24T16:58:21.765Z,97753.03
2022-10-24T17:00:48.320Z,97745.31
2022-10-24T17:03:15.383Z,97744.06
2022-10-24T17:05:45.349Z,97751.44
2022-10-24T17:08:11.732Z,97750.19
2022-10-24T17:10:38.752Z,97745.72
2022-10-24T17:13:07.544Z,97744.91
2022-10-24T17:15:34.473Z,97736.88
2022-10-24T17:18:00.834Z,97733.44
2022-10-24T17:20:27.526Z,97751.72
2022-10-24T17:22:54.206Z,97742.88
2022-10-24T17:25:23.380Z,97746.75
2022-10-24T17:27:50.733Z,97739.81
2022-10-24T17:30:20.361Z,97724.81
2022-10-24T17:32:47.207Z,97724.00
2022-10-24T17:35:16.471Z,97682.88
2022-10-24T17:37:49.916Z,97677.97
2022-10-24T17:40:18.151Z,97647.63
2022-10-24T17:42:47.979Z,97621.69
2022-10-24T17:45:16.209Z,97611.59
2022-10-24T17:47:42.966Z,97593.81
2022-10-24T17:50:10.646Z,97568.75
2022-10-24T17:52:40.138Z,97576.34
2022-10-24T17:55:45.226Z,97580.16
2022-10-24T17:58:13.711Z,97578.94
2022-10-24T18:00:40.191Z,97580.59
2022-10-24T18:03:08.561Z,97580.25
2022-10-24T18:05:37.937Z,97581.78
2022-10-24T18:08:06.860Z,97593.06
2022-10-24T18:10:33.581Z,97600.31
2022-10-24T18:13:00.431Z,97616.53
2022-10-24T18:15:27.640Z,97613.09
2022-10-24T18:17:54.287Z,97617.66
2022-10-24T18:20:20.717Z,97610.44
2022-10-24T18:22:47.438Z,97614.78
2022-10-24T18:25:18.749Z,97601.66
2022-10-24T18:27:48.451Z,97588.13
2022-10-24T18:30:14.910Z,97597.97
2022-10-24T18:32:41.352Z,97603.38
2022-10-24T18:35:08.286Z,97593.94
2022-10-24T18:37:35.741Z,97606.69
2022-10-24T18:40:04.542Z,97609.75
2022-10-24T18:42:45.475Z,97618.19
2022-10-24T18:45:17.339Z,97634.81
2022-10-24T18:47:44.436Z,97612.06
2022-10-24T18:50:16.250Z,97631.75
2022-10-24T18:53:09.842Z,97654.72
2022-10-24T18:55:36.881Z,97672.41
2022-10-24T18:58:03.790Z,97658.03
2022-10-24T19:00:32.960Z,97656.84
2022-10-24T19:03:18.431Z,97681.25
2022-10-24T19:05:55.276Z,97696.25
2022-10-24T19:08:24.322Z,97696.09
2022-10-24T19:10:52.834Z,97683.34
2022-10-24T19:13:19.292Z,97678.00
2022-10-24T19:15:53.473Z,97668.78
2022-10-24T19:18:20.375Z,97688.88
2022-10-24T19:20:46.860Z,97684.00
2022-10-24T19:23:14.961Z,97670.88
2022-10-24T19:25:41.842Z,97687.66
2022-10-24T19:28:11.614Z,97669.19
2022-10-24T19:30:40.767Z,97703.88
2022-10-24T19:33:07.195Z,97701.66
2022-10-24T19:35:36.240Z,97709.22
2022-10-24T19:38:02.599Z,97734.25
2022-10-24T19:40:28.992Z,97724.63
2022-10-24T19:42:55.410Z,97702.06
2022-10-24T19:45:25.035Z,97717.25
2022-10-24T19:47:55.507Z,97724.41
2022-10-24T19:50:22.307Z,97733.66
2022-10-24T19:52:48.726Z,97742.06
2022-10-24T19:55:15.225Z,97741.88
2022-10-24T19:57:41.751Z,97752.53
2022-10-24T20:00:08.782Z,97739.81
2022-10-24T20:02:35.198Z,97758.28
2022-10-24T20:05:01.640Z,97786.19
2022-10-24T20:07:28.095Z,97785.38
2022-10-24T20:09:54.464Z,97791.91
2022-10-24T20:12:20.869Z,97796.47
2022-10-24T20:14:47.260Z,97810.19
2022-10-24T20:17:13.667Z,97801.38
2022-10-24T20:19:40.062Z,97819.03
2022-10-24T20:22:06.424Z,97826.00
2022-10-24T20:24:33.504Z,97825.19
2022-10-24T20:27:00.760Z,97825.59
2022-10-24T20:29:27.284Z,97811.19
2022-10-24T20:31:53.725Z,97838.53
2022-10-24T20:34:20.218Z,97833.78
2022-10-24T20:36:48.035Z,97851.88
2022-10-24T20:39:16.134Z,97836.84
2022-10-24T20:41:43.224Z,97833.78
2022-10-24T20:44:11.082Z,97815.09
2022-10-24T20:46:37.462Z,97845.91
2022-10-24T20:49:04.424Z,97839.13
2022-10-24T20:51:30.812Z,97843.22
2022-10-24T20:53:57.558Z,97832.56
2022-10-24T20:56:25.977Z,97831.72
2022-10-24T20:58:53.763Z,97840.19
2022-10-24T21:01:23.311Z,97831.50
2022-10-24T21:03:51.547Z,97842.59
2022-10-24T21:06:19.311Z,97834.19
2022-10-24T21:08:48.486Z,97836.66
2022-10-24T21:11:16.810Z,97838.94
2022-10-24T21:13:44.560Z,97838.28
2022-10-24T21:16:11.832Z,97817.34
2022-10-24T21:18:38.320Z,97827.59
2022-10-24T21:21:09.765Z,97839.31
2022-10-24T21:23:36.541Z,97831.91
2022-10-24T21:26:05.235Z,97824.50
2022-10-24T21:28:32.058Z,97822.47
2022-10-24T21:31:04.249Z,97828.41
2022-10-24T21:33:32.629Z,97824.72
2022-10-24T21:35:59.631Z,97827.38
2022-10-24T21:38:26.035Z,97825.50
2022-10-24T21:40:59.540Z,97832.75
2022-10-24T21:43:25.910Z,97816.50
2022-10-24T21:45:52.275Z,97808.94
2022-10-24T21:48:21.897Z,97801.75
2022-10-24T21:50:50.150Z,97785.31
2022-10-24T21:53:16.522Z,97789.41
2022-10-24T21:55:42.927Z,97766.41
2022-10-24T21:58:09.319Z,97771.34
2022-10-24T22:00:38.131Z,97735.25
2022-10-24T22:03:06.816Z,97719.00
2022-10-24T22:05:33.211Z,97727.81
2022-10-24T22:07:59.982Z,97701.97
2022-10-24T22:10:26.365Z,97701.97
2022-10-24T22:12:52.928Z,97644.31
2022-10-24T22:15:19.307Z,97687.63
2022-10-24T22:17:45.902Z,97675.94
2022-10-24T22:20:12.623Z,97671.63
2022-10-24T22:22:39.033Z,97691.78
2022-10-24T22:25:05.942Z,97674.91
2022-10-24T22:27:32.348Z,97652.75
2022-10-24T22:29:58.760Z,97643.75
2022-10-24T22:34:51.882Z,97605.19
2022-10-24T22:37:24.920Z,97577.72
2022-10-24T22:39:51.653Z,97544.50
2022-10-24T22:42:20.194Z,97548.22
2022-10-24T22:44:47.425Z,97530.59
2022-10-24T22:47:43.208Z,97464.00
2022-10-24T22:50:21.403Z,97389.63
2022-10-24T22:52:49.595Z,97352.75
2022-10-24T22:55:31.469Z,97349.50
2022-10-24T22:57:58.229Z,97330.25
2022-10-24T23:00:25.158Z,97334.34
2022-10-24T23:03:15.813Z,97328.81
2022-10-24T23:06:09.179Z,97316.34
2022-10-24T23:08:38.705Z,97314.72
2022-10-24T23:11:05.627Z,97322.09
2022-10-24T23:13:32.738Z,97323.31
2022-10-24T23:16:07.607Z,97303.22
2022-10-24T23:18:34.254Z,97322.88
2022-10-24T23:21:11.358Z,97329.03
2022-10-24T23:23:37.981Z,97314.31
2022-10-24T23:26:36.761Z,97334.38
2022-10-24T23:29:10.349Z,97327.22
2022-10-24T23:31:37.072Z,97310.22
2022-10-24T23:34:03.945Z,97321.47
2022-10-24T23:36:30.556Z,97330.50
2022-10-24T23:38:57.209Z,97314.91
2022-10-24T23:41:23.770Z,97323.31
2022-10-24T23:43:50.441Z,97324.56
2022-10-24T23:46:32.962Z,97328.03
2022-10-24T23:49:09.074Z,97327.00
2022-10-24T23:51:42.523Z,97329.44
2022-10-24T23:54:11.063Z,97321.28
2022-10-24T23:56:38.130Z,97318.81
2022-10-24T23:59:05.414Z,97313.09
